sensor_id;sensor_type;location;lat;lon;timestamp;temperature;humidity
14370;DHT22;7268;50.792;0.252;2024-01-15T00:00:32;3.50;99.90
14370;DHT22;7268;50.792;0.252;2024-01-15T00:02:59;3.50;99.90
14370;DHT22;7268;50.792;0.252;2024-01-15T00:05:26;3.50;99.90
14370;DHT22;7268;50.792;0.252;2024-01-15T00:07:53;3.50;99.90
14370;DHT22;7268;50.792;0.252;2024-01-15T00:10:20;3.50;99.90
14370;DHT22;7268;50.792;0.252;2024-01-15T00:12:47;3.40;99.90
14370;DHT22;7268;50.792;0.252;2024-01-15T00:15:14;3.40;99.90
14370;DHT22;7268;50.792;0.252;2024-01-15T00:17:41;3.40;99.90
14370;DHT22;7268;50.792;0.252;2024-01-15T00:20:08;3.40;99.90
14370;DHT22;7268;50.792;0.252;2024-01-15T00:22:35;3.40;99.90
14370;DHT22;7268;50.792;0.252;2024-01-15T00:25:03;3.30;99.90
14370;DHT22;7268;50.792;0.252;2024-01-15T00:27:30;3.30;99.90
14370;DHT22;7268;50.792;0.252;2024-01-15T00:29:57;3.30;99.90
14370;DHT22;7268;50.792;0.252;2024-01-15T00:32:24;3.30;99.90
14370;DHT22;7268;50.792;0.252;2024-01-15T00:34:51;3.20;99.90
14370;DHT22;7268;50.792;0.252;2024-01-15T00:37:18;3.20;99.90
14370;DHT22;7268;50.792;0.252;2024-01-15T00:39:45;3.20;99.90
14370;DHT22;7268;50.792;0.252;2024-01-15T00:42:12;3.10;99.90
14370;DHT22;7268;50.792;0.252;2024-01-15T00:44:39;3.20;99.90
14370;DHT22;7268;50.792;0.252;2024-01-15T00:47:06;3.20;99.90
14370;DHT22;7268;50.792;0.252;2024-01-15T00:49:33;3.10;99.90
14370;DHT22;7268;50.792;0.252;2024-01-15T00:52:00;3.10;99.90
14370;DHT22;7268;50.792;0.252;2024-01-15T00:54:27;3.00;99.90
14370;DHT22;7268;50.792;0.252;2024-01-15T00:56:54;3.00;99.90
14370;DHT22;7268;50.792;0.252;2024-01-15T00:59:21;3.00;99.90
14370;DHT22;7268;50.792;0.252;2024-01-15T01:01:48;2.90;99.90
14370;DHT22;7268;50.792;0.252;2024-01-15T01:04:16;2.90;99.90
14370;DHT22;7268;50.792;0.252;2024-01-15T01:06:43;2.90;99.90
14370;DHT22;7268;50.792;0.252;2024-01-15T01:09:10;2.90;99.90
14370;DHT22;7268;50.792;0.252;2024-01-15T01:11:37;2.80;99.90
14370;DHT22;7268;50.792;0.252;2024-01-15T01:14:04;2.80;99.90
14370;DHT22;7268;50.792;0.252;2024-01-15T01:16:30;2.80;99.90
14370;DHT22;7268;50.792;0.252;2024-01-15T01:18:58;2.70;99.90
14370;DHT22;7268;50.792;0.252;2024-01-15T01:21:25;2.60;99.90
14370;DHT22;7268;50.792;0.252;2024-01-15T01:23:52;2.50;99.90
14370;DHT22;7268;50.792;0.252;2024-01-15T01:26:21;2.40;99.90
14370;DHT22;7268;50.792;0.252;2024-01-15T01:28:48;2.40;99.90
14370;DHT22;7268;50.792;0.252;2024-01-15T01:31:15;2.30;99.90
14370;DHT22;7268;50.792;0.252;2024-01-15T01:33:43;2.30;99.90
14370;DHT22;7268;50.792;0.252;2024-01-15T01:36:12;2.20;99.90
14370;DHT22;7268;50.792;0.252;2024-01-15T01:38:40;2.10;99.90
14370;DHT22;7268;50.792;0.252;2024-01-15T01:41:07;2.00;99.90
14370;DHT22;7268;50.792;0.252;2024-01-15T01:43:34;1.90;99.90
14370;DHT22;7268;50.792;0.252;2024-01-15T01:46:02;2.00;99.90
14370;DHT22;7268;50.792;0.252;2024-01-15T01:48:29;1.80;99.90
14370;DHT22;7268;50.792;0.252;2024-01-15T01:50:58;1.70;99.90
14370;DHT22;7268;50.792;0.252;2024-01-15T01:53:26;1.70;99.90
14370;DHT22;7268;50.792;0.252;2024-01-15T01:55:56;1.60;99.90
14370;DHT22;7268;50.792;0.252;2024-01-15T01:58:23;1.50;99.90
14370;DHT22;7268;50.792;0.252;2024-01-15T02:00:52;1.50;99.90
14370;DHT22;7268;50.792;0.252;2024-01-15T02:03:19;1.50;99.90
14370;DHT22;7268;50.792;0.252;2024-01-15T02:05:48;1.40;99.90
14370;DHT22;7268;50.792;0.252;2024-01-15T02:08:16;1.30;99.90
14370;DHT22;7268;50.792;0.252;2024-01-15T02:10:43;1.30;99.90
14370;DHT22;7268;50.792;0.252;2024-01-15T02:13:10;1.30;99.90
14370;DHT22;7268;50.792;0.252;2024-01-15T02:15:37;1.30;99.90
14370;DHT22;7268;50.792;0.252;2024-01-15T02:18:06;1.20;99.90
14370;DHT22;7268;50.792;0.252;2024-01-15T02:20:35;1.20;99.90
14370;DHT22;7268;50.792;0.252;2024-01-15T02:23:08;1.10;99.90
14370;DHT22;7268;50.792;0.252;2024-01-15T02:25:41;1.10;99.90
14370;DHT22;7268;50.792;0.252;2024-01-15T02:28:10;1.10;99.90
14370;DHT22;7268;50.792;0.252;2024-01-15T02:30:39;1.10;99.90
14370;DHT22;7268;50.792;0.252;2024-01-15T02:33:10;1.00;99.90
14370;DHT22;7268;50.792;0.252;2024-01-15T02:35:38;1.00;99.90
14370;DHT22;7268;50.792;0.252;2024-01-15T02:38:05;0.80;99.90
14370;DHT22;7268;50.792;0.252;2024-01-15T02:40:34;0.90;99.90
14370;DHT22;7268;50.792;0.252;2024-01-15T02:43:01;0.90;99.90
14370;DHT22;7268;50.792;0.252;2024-01-15T02:45:28;0.90;99.90
14370;DHT22;7268;50.792;0.252;2024-01-15T02:47:55;0.90;99.90
14370;DHT22;7268;50.792;0.252;2024-01-15T02:50:22;0.80;99.90
14370;DHT22;7268;50.792;0.252;2024-01-15T02:52:49;0.80;99.90
14370;DHT22;7268;50.792;0.252;2024-01-15T02:55:16;0.70;99.90
14370;DHT22;7268;50.792;0.252;2024-01-15T02:57:43;0.70;99.90
14370;DHT22;7268;50.792;0.252;2024-01-15T03:00:11;0.60;99.90
14370;DHT22;7268;50.792;0.252;2024-01-15T03:02:45;0.60;99.90
14370;DHT22;7268;50.792;0.252;2024-01-15T03:05:14;0.50;99.90
14370;DHT22;7268;50.792;0.252;2024-01-15T03:07:42;0.50;99.90
14370;DHT22;7268;50.792;0.252;2024-01-15T03:10:09;0.50;99.90
14370;DHT22;7268;50.792;0.252;2024-01-15T03:12:36;0.50;99.90
14370;DHT22;7268;50.792;0.252;2024-01-15T03:15:03;0.40;99.90
14370;DHT22;7268;50.792;0.252;2024-01-15T03:17:31;0.50;99.90
14370;DHT22;7268;50.792;0.252;2024-01-15T03:19:58;0.60;99.90
14370;DHT22;7268;50.792;0.252;2024-01-15T03:22:25;0.60;99.90
14370;DHT22;7268;50.792;0.252;2024-01-15T03:24:54;0.60;99.90
14370;DHT22;7268;50.792;0.252;2024-01-15T03:27:21;0.60;99.90
14370;DHT22;7268;50.792;0.252;2024-01-15T03:29:48;0.60;99.90
14370;DHT22;7268;50.792;0.252;2024-01-15T03:32:15;0.60;99.90
14370;DHT22;7268;50.792;0.252;2024-01-15T03:34:43;0.50;99.90
14370;DHT22;7268;50.792;0.252;2024-01-15T03:37:10;0.60;99.90
14370;DHT22;7268;50.792;0.252;2024-01-15T03:39:37;0.50;99.90
14370;DHT22;7268;50.792;0.252;2024-01-15T03:42:04;0.50;99.90
14370;DHT22;7268;50.792;0.252;2024-01-15T03:44:31;0.60;99.90
14370;DHT22;7268;50.792;0.252;2024-01-15T03:46:58;0.60;99.90
14370;DHT22;7268;50.792;0.252;2024-01-15T03:49:25;0.60;99.90
14370;DHT22;7268;50.792;0.252;2024-01-15T03:51:52;0.60;99.90
14370;DHT22;7268;50.792;0.252;2024-01-15T03:54:19;0.60;99.90
14370;DHT22;7268;50.792;0.252;2024-01-15T03:56:47;0.60;99.90
14370;DHT22;7268;50.792;0.252;2024-01-15T03:59:14;0.60;99.90
14370;DHT22;7268;50.792;0.252;2024-01-15T04:01:41;0.70;99.90
14370;DHT22;7268;50.792;0.252;2024-01-15T04:04:08;0.70;99.90
14370;DHT22;7268;50.792;0.252;2024-01-15T04:06:35;0.70;99.90
14370;DHT22;7268;50.792;0.252;2024-01-15T04:09:02;0.70;99.90
14370;DHT22;7268;50.792;0.252;2024-01-15T04:11:29;0.70;99.90
14370;DHT22;7268;50.792;0.252;2024-01-15T04:13:56;0.60;99.90
14370;DHT22;7268;50.792;0.252;2024-01-15T04:16:23;0.70;99.90
14370;DHT22;7268;50.792;0.252;2024-01-15T04:18:50;0.60;99.90
14370;DHT22;7268;50.792;0.252;2024-01-15T04:21:17;0.70;99.90
14370;DHT22;7268;50.792;0.252;2024-01-15T04:23:45;0.60;99.90
14370;DHT22;7268;50.792;0.252;2024-01-15T04:26:12;0.60;99.90
14370;DHT22;7268;50.792;0.252;2024-01-15T04:28:39;0.70;99.90
14370;DHT22;7268;50.792;0.252;2024-01-15T04:31:07;0.70;99.90
14370;DHT22;7268;50.792;0.252;2024-01-15T04:33:34;0.70;99.90
14370;DHT22;7268;50.792;0.252;2024-01-15T04:36:03;0.70;99.90
14370;DHT22;7268;50.792;0.252;2024-01-15T04:38:30;0.60;99.90
14370;DHT22;7268;50.792;0.252;2024-01-15T04:40:57;0.60;99.90
14370;DHT22;7268;50.792;0.252;2024-01-15T04:43:24;0.70;99.90
14370;DHT22;7268;50.792;0.252;2024-01-15T04:45:51;0.60;99.90
14370;DHT22;7268;50.792;0.252;2024-01-15T04:48:18;0.70;99.90
14370;DHT22;7268;50.792;0.252;2024-01-15T04:50:45;0.50;99.90
14370;DHT22;7268;50.792;0.252;2024-01-15T04:53:13;0.60;99.90
14370;DHT22;7268;50.792;0.252;2024-01-15T04:55:40;0.50;99.90
14370;DHT22;7268;50.792;0.252;2024-01-15T04:58:06;0.70;99.90
14370;DHT22;7268;50.792;0.252;2024-01-15T05:00:33;0.70;99.90
14370;DHT22;7268;50.792;0.252;2024-01-15T05:03:00;0.60;99.90
14370;DHT22;7268;50.792;0.252;2024-01-15T05:05:27;0.50;99.90
14370;DHT22;7268;50.792;0.252;2024-01-15T05:07:54;0.40;99.90
14370;DHT22;7268;50.792;0.252;2024-01-15T05:10:21;0.40;99.90
14370;DHT22;7268;50.792;0.252;2024-01-15T05:12:48;0.40;99.90
14370;DHT22;7268;50.792;0.252;2024-01-15T05:15:15;0.30;99.90
14370;DHT22;7268;50.792;0.252;2024-01-15T05:17:42;0.20;99.90
14370;DHT22;7268;50.792;0.252;2024-01-15T05:20:10;0.20;99.90
14370;DHT22;7268;50.792;0.252;2024-01-15T05:22:39;0.20;99.90
14370;DHT22;7268;50.792;0.252;2024-01-15T05:25:06;0.20;99.90
14370;DHT22;7268;50.792;0.252;2024-01-15T05:27:33;0.20;99.90
14370;DHT22;7268;50.792;0.252;2024-01-15T05:30:00;0.20;99.90
14370;DHT22;7268;50.792;0.252;2024-01-15T05:32:27;0.10;99.90
14370;DHT22;7268;50.792;0.252;2024-01-15T05:34:54;0.10;99.90
14370;DHT22;7268;50.792;0.252;2024-01-15T05:37:21;0.10;99.90
14370;DHT22;7268;50.792;0.252;2024-01-15T05:39:48;0.10;99.90
14370;DHT22;7268;50.792;0.252;2024-01-15T05:42:15;0.20;99.90
14370;DHT22;7268;50.792;0.252;2024-01-15T05:44:42;0.10;99.90
14370;DHT22;7268;50.792;0.252;2024-01-15T05:47:08;0.10;99.90
14370;DHT22;7268;50.792;0.252;2024-01-15T05:49:35;0.10;99.90
14370;DHT22;7268;50.792;0.252;2024-01-15T05:52:03;0.10;99.90
14370;DHT22;7268;50.792;0.252;2024-01-15T05:54:30;0.10;99.90
14370;DHT22;7268;50.792;0.252;2024-01-15T05:56:57;0.20;99.90
14370;DHT22;7268;50.792;0.252;2024-01-15T05:59:24;0.10;99.90
14370;DHT22;7268;50.792;0.252;2024-01-15T06:01:52;0.20;99.90
14370;DHT22;7268;50.792;0.252;2024-01-15T06:04:19;0.20;99.90
14370;DHT22;7268;50.792;0.252;2024-01-15T06:06:46;0.30;99.90
14370;DHT22;7268;50.792;0.252;2024-01-15T06:09:13;0.30;99.90
14370;DHT22;7268;50.792;0.252;2024-01-15T06:11:41;0.30;99.90
14370;DHT22;7268;50.792;0.252;2024-01-15T06:14:08;0.20;99.90
14370;DHT22;7268;50.792;0.252;2024-01-15T06:16:36;0.30;99.90
14370;DHT22;7268;50.792;0.252;2024-01-15T06:19:03;0.30;99.90
14370;DHT22;7268;50.792;0.252;2024-01-15T06:21:30;0.20;99.90
14370;DHT22;7268;50.792;0.252;2024-01-15T06:23:57;0.20;99.90
14370;DHT22;7268;50.792;0.252;2024-01-15T06:26:24;0.30;99.90
14370;DHT22;7268;50.792;0.252;2024-01-15T06:28:51;0.30;99.90
14370;DHT22;7268;50.792;0.252;2024-01-15T06:31:19;0.20;99.90
14370;DHT22;7268;50.792;0.252;2024-01-15T06:33:46;0.20;99.90
14370;DHT22;7268;50.792;0.252;2024-01-15T06:36:15;0.30;99.90
14370;DHT22;7268;50.792;0.252;2024-01-15T06:38:45;0.30;99.90
14370;DHT22;7268;50.792;0.252;2024-01-15T06:41:12;0.30;99.90
14370;DHT22;7268;50.792;0.252;2024-01-15T06:43:39;0.40;99.90
14370;DHT22;7268;50.792;0.252;2024-01-15T06:46:06;0.40;99.90
14370;DHT22;7268;50.792;0.252;2024-01-15T06:48:34;0.40;99.90
14370;DHT22;7268;50.792;0.252;2024-01-15T06:51:01;0.30;99.90
14370;DHT22;7268;50.792;0.252;2024-01-15T06:53:28;0.30;99.90
14370;DHT22;7268;50.792;0.252;2024-01-15T06:55:55;0.30;99.90
14370;DHT22;7268;50.792;0.252;2024-01-15T06:58:22;0.20;99.90
14370;DHT22;7268;50.792;0.252;2024-01-15T07:00:49;0.20;99.90
14370;DHT22;7268;50.792;0.252;2024-01-15T07:03:16;0.30;99.90
14370;DHT22;7268;50.792;0.252;2024-01-15T07:05:44;0.30;99.90
14370;DHT22;7268;50.792;0.252;2024-01-15T07:08:11;0.30;99.90
14370;DHT22;7268;50.792;0.252;2024-01-15T07:10:38;0.30;99.90
14370;DHT22;7268;50.792;0.252;2024-01-15T07:13:05;0.30;99.90
14370;DHT22;7268;50.792;0.252;2024-01-15T07:15:35;0.30;99.90
14370;DHT22;7268;50.792;0.252;2024-01-15T07:18:02;0.30;99.90
14370;DHT22;7268;50.792;0.252;2024-01-15T07:20:29;0.30;99.90
14370;DHT22;7268;50.792;0.252;2024-01-15T07:22:55;0.30;99.90
14370;DHT22;7268;50.792;0.252;2024-01-15T07:25:23;0.30;99.90
14370;DHT22;7268;50.792;0.252;2024-01-15T07:27:52;0.30;99.90
14370;DHT22;7268;50.792;0.252;2024-01-15T07:30:20;0.30;99.90
14370;DHT22;7268;50.792;0.252;2024-01-15T07:32:48;0.30;99.90
14370;DHT22;7268;50.792;0.252;2024-01-15T07:35:16;0.30;99.90
14370;DHT22;7268;50.792;0.252;2024-01-15T07:37:43;0.40;99.90
14370;DHT22;7268;50.792;0.252;2024-01-15T07:40:11;0.40;99.90
14370;DHT22;7268;50.792;0.252;2024-01-15T07:42:39;0.40;99.90
14370;DHT22;7268;50.792;0.252;2024-01-15T07:45:06;0.40;99.90
14370;DHT22;7268;50.792;0.252;2024-01-15T07:47:33;0.40;99.90
14370;DHT22;7268;50.792;0.252;2024-01-15T07:50:00;0.30;99.90
14370;DHT22;7268;50.792;0.252;2024-01-15T07:52:32;0.30;99.90
14370;DHT22;7268;50.792;0.252;2024-01-15T07:54:58;0.20;99.90
14370;DHT22;7268;50.792;0.252;2024-01-15T07:57:26;0.20;99.90
14370;DHT22;7268;50.792;0.252;2024-01-15T07:59:54;0.20;99.90
14370;DHT22;7268;50.792;0.252;2024-01-15T08:02:21;0.20;99.90
14370;DHT22;7268;50.792;0.252;2024-01-15T08:04:48;0.30;99.90
14370;DHT22;7268;50.792;0.252;2024-01-15T08:07:15;0.30;99.90
14370;DHT22;7268;50.792;0.252;2024-01-15T08:09:42;0.20;99.90
14370;DHT22;7268;50.792;0.252;2024-01-15T08:12:10;0.20;99.90
14370;DHT22;7268;50.792;0.252;2024-01-15T08:14:37;0.20;99.90
14370;DHT22;7268;50.792;0.252;2024-01-15T08:17:04;0.20;99.90
14370;DHT22;7268;50.792;0.252;2024-01-15T08:19:31;0.30;99.90
14370;DHT22;7268;50.792;0.252;2024-01-15T08:21:58;0.30;99.90
14370;DHT22;7268;50.792;0.252;2024-01-15T08:24:25;0.30;99.90
14370;DHT22;7268;50.792;0.252;2024-01-15T08:26:52;0.20;99.90
14370;DHT22;7268;50.792;0.252;2024-01-15T08:29:19;0.30;99.90
14370;DHT22;7268;50.792;0.252;2024-01-15T08:31:47;0.30;99.90
14370;DHT22;7268;50.792;0.252;2024-01-15T08:34:15;0.80;99.90
14370;DHT22;7268;50.792;0.252;2024-01-15T08:36:42;1.90;99.90
14370;DHT22;7268;50.792;0.252;2024-01-15T08:39:09;2.10;99.90
14370;DHT22;7268;50.792;0.252;2024-01-15T08:41:36;1.90;99.90
14370;DHT22;7268;50.792;0.252;2024-01-15T08:44:21;1.80;99.90
14370;DHT22;7268;50.792;0.252;2024-01-15T08:46:48;1.50;99.90
14370;DHT22;7268;50.792;0.252;2024-01-15T08:49:15;1.40;99.90
14370;DHT22;7268;50.792;0.252;2024-01-15T08:51:42;1.40;99.90
14370;DHT22;7268;50.792;0.252;2024-01-15T08:54:09;1.40;99.90
14370;DHT22;7268;50.792;0.252;2024-01-15T08:56:36;1.40;99.90
14370;DHT22;7268;50.792;0.252;2024-01-15T08:59:03;2.10;99.90
14370;DHT22;7268;50.792;0.252;2024-01-15T09:01:30;2.30;99.90
14370;DHT22;7268;50.792;0.252;2024-01-15T09:03:58;2.70;99.90
14370;DHT22;7268;50.792;0.252;2024-01-15T09:06:25;4.00;99.90
14370;DHT22;7268;50.792;0.252;2024-01-15T09:08:52;4.90;97.50
14370;DHT22;7268;50.792;0.252;2024-01-15T09:11:19;4.30;96.30
14370;DHT22;7268;50.792;0.252;2024-01-15T09:13:46;3.20;97.60
14370;DHT22;7268;50.792;0.252;2024-01-15T09:16:13;2.60;99.90
14370;DHT22;7268;50.792;0.252;2024-01-15T09:18:40;2.20;99.90
14370;DHT22;7268;50.792;0.252;2024-01-15T09:21:07;1.70;99.90
14370;DHT22;7268;50.792;0.252;2024-01-15T09:23:34;1.50;99.90
14370;DHT22;7268;50.792;0.252;2024-01-15T09:26:01;1.20;99.90
14370;DHT22;7268;50.792;0.252;2024-01-15T09:28:27;1.50;99.90
14370;DHT22;7268;50.792;0.252;2024-01-15T09:30:54;1.60;99.90
14370;DHT22;7268;50.792;0.252;2024-01-15T09:33:21;1.60;99.90
14370;DHT22;7268;50.792;0.252;2024-01-15T09:35:49;1.80;99.90
14370;DHT22;7268;50.792;0.252;2024-01-15T09:38:16;3.20;99.90
14370;DHT22;7268;50.792;0.252;2024-01-15T09:40:45;5.00;98.10
14370;DHT22;7268;50.792;0.252;2024-01-15T09:43:13;6.50;93.50
14370;DHT22;7268;50.792;0.252;2024-01-15T09:45:41;7.20;91.30
14370;DHT22;7268;50.792;0.252;2024-01-15T09:48:08;8.10;89.50
14370;DHT22;7268;50.792;0.252;2024-01-15T09:50:35;8.40;85.20
14370;DHT22;7268;50.792;0.252;2024-01-15T09:53:05;8.50;82.70
14370;DHT22;7268;50.792;0.252;2024-01-15T09:55:32;8.70;82.40
14370;DHT22;7268;50.792;0.252;2024-01-15T09:58:00;9.30;80.00
14370;DHT22;7268;50.792;0.252;2024-01-15T10:00:30;9.90;77.60
14370;DHT22;7268;50.792;0.252;2024-01-15T10:03:03;9.70;77.10
14370;DHT22;7268;50.792;0.252;2024-01-15T10:05:31;9.50;77.10
14370;DHT22;7268;50.792;0.252;2024-01-15T10:07:59;9.50;76.70
14370;DHT22;7268;50.792;0.252;2024-01-15T10:10:27;9.80;76.90
14370;DHT22;7268;50.792;0.252;2024-01-15T10:12:55;9.70;73.80
14370;DHT22;7268;50.792;0.252;2024-01-15T10:15:28;9.50;74.40
14370;DHT22;7268;50.792;0.252;2024-01-15T10:17:55;9.90;72.50
14370;DHT22;7268;50.792;0.252;2024-01-15T10:20:22;9.90;72.40
14370;DHT22;7268;50.792;0.252;2024-01-15T10:22:50;10.20;72.00
14370;DHT22;7268;50.792;0.252;2024-01-15T10:25:17;10.10;72.00
14370;DHT22;7268;50.792;0.252;2024-01-15T10:28:00;10.20;71.40
14370;DHT22;7268;50.792;0.252;2024-01-15T10:30:28;11.10;69.80
14370;DHT22;7268;50.792;0.252;2024-01-15T10:33:02;11.70;66.40
14370;DHT22;7268;50.792;0.252;2024-01-15T10:35:30;11.40;66.10
14370;DHT22;7268;50.792;0.252;2024-01-15T10:37:58;11.20;67.30
14370;DHT22;7268;50.792;0.252;2024-01-15T10:40:25;11.00;68.90
14370;DHT22;7268;50.792;0.252;2024-01-15T10:42:52;10.90;68.20
14370;DHT22;7268;50.792;0.252;2024-01-15T10:45:19;10.20;70.10
14370;DHT22;7268;50.792;0.252;2024-01-15T10:47:46;10.00;73.00
14370;DHT22;7268;50.792;0.252;2024-01-15T10:50:14;10.40;69.90
14370;DHT22;7268;50.792;0.252;2024-01-15T10:52:42;10.80;69.90
14370;DHT22;7268;50.792;0.252;2024-01-15T10:55:12;11.40;67.50
14370;DHT22;7268;50.792;0.252;2024-01-15T10:57:47;11.60;67.00
14370;DHT22;7268;50.792;0.252;2024-01-15T11:00:15;11.80;66.20
14370;DHT22;7268;50.792;0.252;2024-01-15T11:02:42;11.80;66.20
14370;DHT22;7268;50.792;0.252;2024-01-15T11:05:10;11.40;67.10
14370;DHT22;7268;50.792;0.252;2024-01-15T11:07:39;11.10;67.00
14370;DHT22;7268;50.792;0.252;2024-01-15T11:10:08;11.70;66.50
14370;DHT22;7268;50.792;0.252;2024-01-15T11:12:55;11.20;67.50
14370;DHT22;7268;50.792;0.252;2024-01-15T11:15:22;10.70;68.40
14370;DHT22;7268;50.792;0.252;2024-01-15T11:17:59;10.90;69.50
14370;DHT22;7268;50.792;0.252;2024-01-15T11:20:32;11.00;67.80
14370;DHT22;7268;50.792;0.252;2024-01-15T11:22:59;10.60;69.20
14370;DHT22;7268;50.792;0.252;2024-01-15T11:25:35;10.60;69.60
14370;DHT22;7268;50.792;0.252;2024-01-15T11:28:04;10.50;70.30
14370;DHT22;7268;50.792;0.252;2024-01-15T11:30:31;10.30;70.00
14370;DHT22;7268;50.792;0.252;2024-01-15T11:33:03;10.30;71.80
14370;DHT22;7268;50.792;0.252;2024-01-15T11:35:48;10.30;71.60
14370;DHT22;7268;50.792;0.252;2024-01-15T11:38:27;10.20;69.80
14370;DHT22;7268;50.792;0.252;2024-01-15T11:40:58;10.60;68.70
14370;DHT22;7268;50.792;0.252;2024-01-15T11:43:26;10.50;68.50
14370;DHT22;7268;50.792;0.252;2024-01-15T11:45:53;10.10;69.50
14370;DHT22;7268;50.792;0.252;2024-01-15T11:48:21;9.70;70.00
14370;DHT22;7268;50.792;0.252;2024-01-15T11:50:51;10.00;70.20
14370;DHT22;7268;50.792;0.252;2024-01-15T11:55:51;9.50;68.90
14370;DHT22;7268;50.792;0.252;2024-01-15T11:58:19;9.20;70.30
14370;DHT22;7268;50.792;0.252;2024-01-15T12:00:50;9.20;69.40
14370;DHT22;7268;50.792;0.252;2024-01-15T12:03:23;9.00;70.50
14370;DHT22;7268;50.792;0.252;2024-01-15T12:05:53;8.40;69.00
14370;DHT22;7268;50.792;0.252;2024-01-15T12:08:24;7.60;72.90
14370;DHT22;7268;50.792;0.252;2024-01-15T12:10:52;6.70;74.90
14370;DHT22;7268;50.792;0.252;2024-01-15T12:13:20;6.10;77.30
14370;DHT22;7268;50.792;0.252;2024-01-15T12:15:47;5.80;79.70
14370;DHT22;7268;50.792;0.252;2024-01-15T12:18:17;5.50;81.20
14370;DHT22;7268;50.792;0.252;2024-01-15T12:20:45;5.30;81.40
14370;DHT22;7268;50.792;0.252;2024-01-15T12:23:17;5.00;82.40
14370;DHT22;7268;50.792;0.252;2024-01-15T12:25:44;5.00;83.10
14370;DHT22;7268;50.792;0.252;2024-01-15T12:28:12;4.90;84.00
14370;DHT22;7268;50.792;0.252;2024-01-15T12:30:39;4.80;83.90
14370;DHT22;7268;50.792;0.252;2024-01-15T12:33:07;4.70;84.20
14370;DHT22;7268;50.792;0.252;2024-01-15T12:35:36;4.50;86.00
14370;DHT22;7268;50.792;0.252;2024-01-15T12:38:06;4.50;85.90
14370;DHT22;7268;50.792;0.252;2024-01-15T12:40:33;4.40;85.80
14370;DHT22;7268;50.792;0.252;2024-01-15T12:43:03;4.40;86.70
14370;DHT22;7268;50.792;0.252;2024-01-15T12:45:32;4.40;85.40
14370;DHT22;7268;50.792;0.252;2024-01-15T12:47:59;4.40;85.90
14370;DHT22;7268;50.792;0.252;2024-01-15T12:50:27;4.50;86.90
14370;DHT22;7268;50.792;0.252;2024-01-15T12:52:54;4.60;85.90
14370;DHT22;7268;50.792;0.252;2024-01-15T12:55:21;4.60;85.40
14370;DHT22;7268;50.792;0.252;2024-01-15T12:57:49;4.40;84.40
14370;DHT22;7268;50.792;0.252;2024-01-15T13:00:19;4.40;86.00
14370;DHT22;7268;50.792;0.252;2024-01-15T13:02:47;4.50;86.10
14370;DHT22;7268;50.792;0.252;2024-01-15T13:05:15;4.40;84.40
14370;DHT22;7268;50.792;0.252;2024-01-15T13:07:43;4.40;84.70
14370;DHT22;7268;50.792;0.252;2024-01-15T13:10:11;4.30;83.30
14370;DHT22;7268;50.792;0.252;2024-01-15T13:12:40;4.40;83.70
14370;DHT22;7268;50.792;0.252;2024-01-15T13:15:09;4.40;83.80
14370;DHT22;7268;50.792;0.252;2024-01-15T13:17:41;4.40;84.70
14370;DHT22;7268;50.792;0.252;2024-01-15T13:20:09;4.40;83.60
14370;DHT22;7268;50.792;0.252;2024-01-15T13:22:40;4.30;83.40
14370;DHT22;7268;50.792;0.252;2024-01-15T13:25:11;4.30;83.50
14370;DHT22;7268;50.792;0.252;2024-01-15T13:27:38;4.30;85.10
14370;DHT22;7268;50.792;0.252;2024-01-15T13:30:07;4.30;85.50
14370;DHT22;7268;50.792;0.252;2024-01-15T13:32:35;4.20;85.30
14370;DHT22;7268;50.792;0.252;2024-01-15T13:35:03;4.20;85.10
14370;DHT22;7268;50.792;0.252;2024-01-15T13:37:34;4.10;84.90
14370;DHT22;7268;50.792;0.252;2024-01-15T13:40:01;4.10;84.00
14370;DHT22;7268;50.792;0.252;2024-01-15T13:42:33;4.10;85.20
14370;DHT22;7268;50.792;0.252;2024-01-15T13:45:00;4.10;84.30
14370;DHT22;7268;50.792;0.252;2024-01-15T13:47:27;4.10;83.60
14370;DHT22;7268;50.792;0.252;2024-01-15T13:49:54;4.20;83.90
14370;DHT22;7268;50.792;0.252;2024-01-15T13:52:22;4.20;84.30
14370;DHT22;7268;50.792;0.252;2024-01-15T13:54:48;4.00;83.70
14370;DHT22;7268;50.792;0.252;2024-01-15T13:57:17;3.90;84.60
14370;DHT22;7268;50.792;0.252;2024-01-15T13:59:55;3.80;84.20
14370;DHT22;7268;50.792;0.252;2024-01-15T14:02:22;3.80;85.90
14370;DHT22;7268;50.792;0.252;2024-01-15T14:04:52;3.80;85.50
14370;DHT22;7268;50.792;0.252;2024-01-15T14:07:18;3.80;84.70
14370;DHT22;7268;50.792;0.252;2024-01-15T14:09:45;3.70;85.00
14370;DHT22;7268;50.792;0.252;2024-01-15T14:12:12;3.70;85.10
14370;DHT22;7268;50.792;0.252;2024-01-15T14:14:39;3.60;84.70
14370;DHT22;7268;50.792;0.252;2024-01-15T14:17:07;3.60;84.70
14370;DHT22;7268;50.792;0.252;2024-01-15T14:19:34;3.50;85.10
14370;DHT22;7268;50.792;0.252;2024-01-15T14:22:12;3.40;85.20
14370;DHT22;7268;50.792;0.252;2024-01-15T14:24:39;3.30;85.00
14370;DHT22;7268;50.792;0.252;2024-01-15T14:27:06;3.20;84.80
14370;DHT22;7268;50.792;0.252;2024-01-15T14:29:34;3.20;86.60
14370;DHT22;7268;50.792;0.252;2024-01-15T14:32:01;3.20;87.20
14370;DHT22;7268;50.792;0.252;2024-01-15T14:34:28;3.20;86.60
14370;DHT22;7268;50.792;0.252;2024-01-15T14:36:55;3.20;85.00
14370;DHT22;7268;50.792;0.252;2024-01-15T14:39:23;3.10;84.00
14370;DHT22;7268;50.792;0.252;2024-01-15T14:41:50;3.00;84.40
14370;DHT22;7268;50.792;0.252;2024-01-15T14:44:18;3.00;85.20
14370;DHT22;7268;50.792;0.252;2024-01-15T14:46:45;2.90;85.70
14370;DHT22;7268;50.792;0.252;2024-01-15T14:49:13;2.90;87.40
14370;DHT22;7268;50.792;0.252;2024-01-15T14:51:41;2.70;88.00
14370;DHT22;7268;50.792;0.252;2024-01-15T14:54:09;2.70;88.60
14370;DHT22;7268;50.792;0.252;2024-01-15T14:56:36;2.60;88.00
14370;DHT22;7268;50.792;0.252;2024-01-15T14:59:02;2.60;88.60
14370;DHT22;7268;50.792;0.252;2024-01-15T15:01:31;2.50;88.40
14370;DHT22;7268;50.792;0.252;2024-01-15T15:03:59;2.40;89.50
14370;DHT22;7268;50.792;0.252;2024-01-15T15:06:26;2.40;89.30
14370;DHT22;7268;50.792;0.252;2024-01-15T15:08:54;2.30;89.10
14370;DHT22;7268;50.792;0.252;2024-01-15T15:11:27;2.20;89.60
14370;DHT22;7268;50.792;0.252;2024-01-15T15:13:54;2.20;89.80
14370;DHT22;7268;50.792;0.252;2024-01-15T15:16:21;2.10;89.70
14370;DHT22;7268;50.792;0.252;2024-01-15T15:18:48;2.00;89.70
14370;DHT22;7268;50.792;0.252;2024-01-15T15:21:15;1.90;90.30
14370;DHT22;7268;50.792;0.252;2024-01-15T15:23:42;1.90;90.10
14370;DHT22;7268;50.792;0.252;2024-01-15T15:26:09;2.00;89.50
14370;DHT22;7268;50.792;0.252;2024-01-15T15:28:37;1.90;89.80
14370;DHT22;7268;50.792;0.252;2024-01-15T15:31:08;1.80;90.00
14370;DHT22;7268;50.792;0.252;2024-01-15T15:33:35;1.80;90.40
14370;DHT22;7268;50.792;0.252;2024-01-15T15:36:03;1.60;90.50
14370;DHT22;7268;50.792;0.252;2024-01-15T15:38:33;1.60;90.90
14370;DHT22;7268;50.792;0.252;2024-01-15T15:41:00;1.50;91.00
14370;DHT22;7268;50.792;0.252;2024-01-15T15:43:28;1.40;91.40
14370;DHT22;7268;50.792;0.252;2024-01-15T15:45:56;1.40;91.60
14370;DHT22;7268;50.792;0.252;2024-01-15T15:48:26;1.30;91.80
14370;DHT22;7268;50.792;0.252;2024-01-15T15:50:54;1.20;92.00
14370;DHT22;7268;50.792;0.252;2024-01-15T15:53:23;1.20;92.00
14370;DHT22;7268;50.792;0.252;2024-01-15T15:55:50;1.30;92.00
14370;DHT22;7268;50.792;0.252;2024-01-15T15:58:16;1.20;91.90
14370;DHT22;7268;50.792;0.252;2024-01-15T16:00:43;1.20;92.00
14370;DHT22;7268;50.792;0.252;2024-01-15T16:03:11;1.10;92.20
14370;DHT22;7268;50.792;0.252;2024-01-15T16:05:38;1.00;92.40